createdAt,value
2018-02-25T00:00:38.550Z,1.90
2018-02-25T00:03:06.163Z,2.42
2018-02-25T00:05:33.624Z,2.28
2018-02-25T00:08:01.058Z,1.90
2018-02-25T00:10:28.498Z,1.60
2018-02-25T00:12:55.928Z,1.50
2018-02-25T00:15:23.355Z,1.73
2018-02-25T00:17:51.552Z,1.85
2018-02-25T00:20:18.997Z,1.80
2018-02-25T00:22:46.431Z,2.30
2018-02-25T00:25:15.379Z,1.98
2018-02-25T00:27:42.807Z,1.90
2018-02-25T00:30:10.249Z,1.87
2018-02-25T00:32:37.668Z,2.15
2018-02-25T00:35:05.108Z,2.10
2018-02-25T00:37:32.603Z,2.10
2018-02-25T00:40:00.057Z,2.00
2018-02-25T00:42:27.488Z,2.35
2018-02-25T00:44:55.718Z,2.20
2018-02-25T00:47:23.920Z,1.92
2018-02-25T00:49:51.373Z,1.50
2018-02-25T00:52:18.831Z,1.62
2018-02-25T00:54:46.278Z,2.30
2018-02-25T00:57:13.708Z,1.60
2018-02-25T00:59:41.932Z,2.15
2018-02-25T01:02:09.368Z,2.10
2018-02-25T01:04:36.989Z,2.05
2018-02-25T01:07:04.450Z,2.05
2018-02-25T01:09:31.838Z,2.50
2018-02-25T01:11:59.381Z,2.33
2018-02-25T01:14:26.812Z,2.53
2018-02-25T01:16:54.247Z,1.92
2018-02-25T01:19:21.700Z,2.90
2018-02-25T01:21:49.132Z,2.15
2018-02-25T01:24:16.569Z,2.35
2018-02-25T01:26:44.782Z,1.90
2018-02-25T01:29:12.202Z,2.28
2018-02-25T01:31:40.422Z,2.50
2018-02-25T01:34:07.853Z,2.10
2018-02-25T01:36:35.293Z,2.70
2018-02-25T01:39:03.491Z,2.80
2018-02-25T01:41:30.950Z,2.15
2018-02-25T01:43:58.377Z,2.12
2018-02-25T01:46:26.575Z,2.90
2018-02-25T01:48:54.026Z,2.10
2018-02-25T01:51:21.669Z,2.60
2018-02-25T01:53:49.080Z,2.60
2018-02-25T01:56:16.530Z,2.37
2018-02-25T01:58:44.052Z,2.20
2018-02-25T02:01:12.264Z,2.53
2018-02-25T02:03:39.698Z,2.72
2018-02-25T02:06:07.132Z,2.95
2018-02-25T02:08:35.492Z,3.37
2018-02-25T02:11:02.971Z,3.78
2018-02-25T02:13:31.177Z,2.83
2018-02-25T02:15:58.609Z,3.00
2018-02-25T02:18:26.823Z,2.97
2018-02-25T02:20:54.264Z,3.10
2018-02-25T02:23:21.736Z,2.15
2018-02-25T02:25:49.299Z,2.60
2018-02-25T02:28:16.931Z,2.85
2018-02-25T02:30:45.198Z,2.60
2018-02-25T02:33:13.393Z,2.60
2018-02-25T02:35:40.825Z,2.62
2018-02-25T02:38:09.025Z,2.65
2018-02-25T02:40:36.464Z,2.33
2018-02-25T02:43:04.655Z,3.08
2018-02-25T02:45:32.907Z,2.85
2018-02-25T02:48:01.105Z,2.87
2018-02-25T02:50:28.616Z,2.62
2018-02-25T02:52:56.141Z,2.40
2018-02-25T02:55:23.784Z,2.90
2018-02-25T02:57:51.960Z,2.37
2018-02-25T03:00:19.441Z,3.22
2018-02-25T03:02:46.869Z,2.12
2018-02-25T03:05:14.481Z,2.25
2018-02-25T03:07:41.912Z,2.55
2018-02-25T03:10:10.506Z,2.60
2018-02-25T03:12:38.176Z,3.03
2018-02-25T03:15:05.621Z,3.05
2018-02-25T03:17:33.078Z,2.67
2018-02-25T03:20:00.634Z,2.85
2018-02-25T03:22:28.154Z,3.85
2018-02-25T03:24:55.776Z,2.20
2018-02-25T03:27:23.465Z,2.58
2018-02-25T03:29:50.914Z,3.35
2018-02-25T03:32:18.356Z,2.85
2018-02-25T03:34:45.793Z,3.53
2018-02-25T03:37:13.254Z,2.78
2018-02-25T03:39:40.751Z,2.55
2018-02-25T03:42:08.988Z,2.42
2018-02-25T03:44:36.411Z,2.70
2018-02-25T03:47:03.843Z,2.10
2018-02-25T03:49:32.040Z,2.90
2018-02-25T03:51:59.475Z,3.08
2018-02-25T03:54:27.672Z,3.17
2018-02-25T03:56:55.102Z,2.50
2018-02-25T03:59:23.432Z,2.28
2018-02-25T04:01:51.107Z,2.70
2018-02-25T04:04:18.503Z,3.37
2018-02-25T04:06:46.847Z,2.90
2018-02-25T04:09:14.303Z,2.75
2018-02-25T04:11:41.784Z,2.37
2018-02-25T04:14:09.353Z,2.80
2018-02-25T04:16:36.762Z,3.12
2018-02-25T04:19:04.189Z,3.00
2018-02-25T04:21:31.643Z,3.12
2018-02-25T04:23:59.836Z,2.53
2018-02-25T04:26:27.261Z,3.05
2018-02-25T04:28:55.471Z,3.25
2018-02-25T04:31:22.908Z,2.90
2018-02-25T04:33:51.122Z,3.22
2018-02-25T04:36:18.558Z,2.97
2018-02-25T04:38:46.094Z,3.12
2018-02-25T04:41:13.660Z,2.80
2018-02-25T04:43:41.835Z,3.00
2018-02-25T04:46:09.266Z,3.37
2018-02-25T04:48:36.695Z,3.00
2018-02-25T04:51:04.119Z,2.97
2018-02-25T04:53:31.557Z,2.90
2018-02-25T04:55:59.768Z,3.25
2018-02-25T04:58:27.174Z,2.92
2018-02-25T05:00:55.386Z,3.10
2018-02-25T05:03:22.816Z,3.33
2018-02-25T05:05:51.017Z,3.40
2018-02-25T05:08:18.460Z,3.35
2018-02-25T05:10:45.882Z,3.40
2018-02-25T05:13:13.350Z,3.58
2018-02-25T05:15:41.563Z,3.05
2018-02-25T05:18:08.991Z,3.55
2018-02-25T05:20:36.589Z,3.50
2018-02-25T05:23:04.018Z,3.83
2018-02-25T05:25:32.210Z,3.42
2018-02-25T05:27:59.777Z,3.40
2018-02-25T05:30:27.193Z,3.25
2018-02-25T05:32:54.619Z,4.05
2018-02-25T05:35:22.052Z,3.53
2018-02-25T05:37:49.483Z,3.67
2018-02-25T05:40:17.681Z,3.70
2018-02-25T05:42:45.122Z,3.45
2018-02-25T05:45:12.554Z,3.28
2018-02-25T05:47:40.757Z,4.00
2018-02-25T05:50:08.198Z,2.92
2018-02-25T05:52:36.550Z,3.62
2018-02-25T05:55:04.070Z,4.00
2018-02-25T05:57:31.584Z,3.50
2018-02-25T05:59:59.202Z,4.30
2018-02-25T06:02:26.616Z,3.60
2018-02-25T06:04:54.187Z,3.50
2018-02-25T06:07:21.615Z,3.70
2018-02-25T06:09:49.816Z,3.72
2018-02-25T06:12:17.387Z,4.37
2018-02-25T06:14:44.821Z,3.10
2018-02-25T06:17:13.024Z,3.53
2018-02-25T06:19:40.585Z,3.80
2018-02-25T06:22:08.045Z,3.58
2018-02-25T06:24:35.504Z,3.90
2018-02-25T06:27:03.032Z,3.60
2018-02-25T06:29:31.238Z,4.03
2018-02-25T06:31:58.849Z,3.85
2018-02-25T06:34:27.197Z,3.70
2018-02-25T06:36:54.664Z,3.92
2018-02-25T06:39:22.116Z,4.07
2018-02-25T06:41:50.163Z,4.68
2018-02-25T06:44:17.597Z,3.92
2018-02-25T06:46:45.047Z,3.97
2018-02-25T06:49:12.484Z,4.20
2018-02-25T06:51:40.734Z,3.75
2018-02-25T06:54:08.175Z,3.50
2018-02-25T06:56:35.617Z,3.55
2018-02-25T06:59:03.196Z,3.70
2018-02-25T07:01:30.763Z,3.87
2018-02-25T07:03:58.206Z,4.10
2018-02-25T07:06:25.638Z,3.75
2018-02-25T07:08:53.173Z,4.15
2018-02-25T07:11:21.401Z,3.40
2018-02-25T07:13:48.831Z,3.03
2018-02-25T07:16:16.412Z,3.53
2018-02-25T07:18:43.845Z,3.67
2018-02-25T07:21:11.271Z,3.78
2018-02-25T07:23:38.701Z,3.53
2018-02-25T07:26:06.259Z,3.35
2018-02-25T07:28:33.679Z,3.25
2018-02-25T07:31:01.133Z,3.40
2018-02-25T07:33:28.562Z,3.50
2018-02-25T07:35:56.011Z,3.20
2018-02-25T07:38:23.443Z,4.65
2018-02-25T07:40:50.894Z,2.78
2018-02-25T07:43:18.396Z,3.60
2018-02-25T07:45:45.821Z,3.85
2018-02-25T07:48:13.262Z,4.05
2018-02-25T07:50:40.721Z,3.83
2018-02-25T07:53:08.260Z,4.80
2018-02-25T07:55:35.720Z,4.35
2018-02-25T07:58:03.140Z,4.05
2018-02-25T08:00:30.586Z,4.20
2018-02-25T08:02:58.026Z,3.45
2018-02-25T08:05:25.525Z,3.85
2018-02-25T08:07:53.019Z,3.42
2018-02-25T08:10:20.478Z,4.03
2018-02-25T08:12:47.946Z,3.72
2018-02-25T08:15:15.505Z,3.83
2018-02-25T08:17:43.059Z,4.05
2018-02-25T08:20:10.494Z,4.78
2018-02-25T08:22:37.993Z,3.10
2018-02-25T08:25:05.705Z,3.00
2018-02-25T08:27:34.035Z,3.72
2018-02-25T08:30:01.458Z,3.25
2018-02-25T08:32:28.875Z,3.42
2018-02-25T08:34:57.101Z,3.20
2018-02-25T08:37:24.625Z,3.92
2018-02-25T08:39:52.970Z,3.60
2018-02-25T08:42:20.395Z,3.10
2018-02-25T08:44:47.866Z,3.47
2018-02-25T08:47:15.346Z,2.95
2018-02-25T08:49:42.876Z,3.83
2018-02-25T08:52:10.349Z,3.28
2018-02-25T08:54:37.856Z,2.97
2018-02-25T08:57:06.067Z,4.15
2018-02-25T08:59:33.516Z,3.35
2018-02-25T09:02:01.021Z,3.17
2018-02-25T09:04:29.314Z,3.87
2018-02-25T09:06:56.830Z,3.35
2018-02-25T09:09:24.348Z,2.92
2018-02-25T09:11:52.660Z,3.30
2018-02-25T09:14:20.127Z,2.62
2018-02-25T09:16:47.650Z,2.80
2018-02-25T09:19:15.186Z,2.95
2018-02-25T09:21:43.484Z,2.95
2018-02-25T09:24:10.982Z,3.03
2018-02-25T09:26:38.432Z,3.65
2018-02-25T09:29:05.923Z,2.58
2018-02-25T09:31:33.359Z,2.50
2018-02-25T09:34:00.879Z,4.40
2018-02-25T09:36:28.301Z,2.67
2018-02-25T09:38:56.528Z,2.90
2018-02-25T09:41:24.000Z,2.92
2018-02-25T09:43:51.405Z,3.17
2018-02-25T09:46:18.855Z,2.40
2018-02-25T09:48:47.118Z,3.40
2018-02-25T09:51:14.584Z,2.40
2018-02-25T09:53:42.026Z,2.60
2018-02-25T09:56:09.473Z,1.98
2018-02-25T09:58:36.917Z,3.08
2018-02-25T10:01:04.365Z,2.00
2018-02-25T10:03:31.816Z,2.50
2018-02-25T10:05:59.272Z,1.87
2018-02-25T10:08:26.705Z,1.73
2018-02-25T10:10:54.246Z,2.40
2018-02-25T10:13:22.449Z,2.70
2018-02-25T10:15:49.872Z,3.10
2018-02-25T10:18:18.099Z,3.08
2018-02-25T10:20:45.639Z,3.17
2018-02-25T10:23:13.089Z,4.00
2018-02-25T10:25:40.540Z,3.30
2018-02-25T10:28:07.989Z,2.28
2018-02-25T10:30:36.190Z,1.80
2018-02-25T10:33:03.628Z,2.70
2018-02-25T10:35:31.159Z,2.08
2018-02-25T10:37:58.852Z,2.37
2018-02-25T10:40:27.035Z,1.83
2018-02-25T10:42:54.494Z,2.70
2018-02-25T10:45:21.918Z,2.70
2018-02-25T10:47:51.197Z,2.33
2018-02-25T10:50:18.639Z,2.35
2018-02-25T10:52:46.085Z,2.28
2018-02-25T10:55:13.545Z,2.80
2018-02-25T10:57:40.998Z,1.50
2018-02-25T11:00:08.431Z,1.80
2018-02-25T11:02:35.859Z,2.30
2018-02-25T11:05:04.167Z,2.30
2018-02-25T11:07:31.593Z,2.60
2018-02-25T11:09:59.800Z,1.73
2018-02-25T11:12:27.246Z,2.40
2018-02-25T11:14:55.452Z,2.00
2018-02-25T11:17:22.885Z,2.17
2018-02-25T11:19:50.335Z,1.85
2018-02-25T11:22:18.540Z,1.83
2018-02-25T11:24:45.982Z,1.67
2018-02-25T11:27:13.411Z,2.30
2018-02-25T11:29:41.604Z,2.00
2018-02-25T11:32:09.053Z,1.40
2018-02-25T11:34:37.293Z,1.50
2018-02-25T11:37:04.718Z,1.50
2018-02-25T11:39:32.138Z,1.80
2018-02-25T11:42:00.339Z,2.20
2018-02-25T11:44:27.772Z,2.67
2018-02-25T11:46:55.981Z,1.70
2018-02-25T11:49:23.415Z,1.70
2018-02-25T11:51:50.830Z,1.37
2018-02-25T11:54:18.271Z,2.07
2018-02-25T11:56:45.691Z,1.67
2018-02-25T11:59:13.116Z,2.00
2018-02-25T12:01:41.338Z,2.10
2018-02-25T12:04:08.765Z,1.77
2018-02-25T12:06:36.973Z,1.57
2018-02-25T12:09:04.441Z,1.57
2018-02-25T12:11:31.870Z,1.47
2018-02-25T12:13:59.360Z,1.80
2018-02-25T12:16:26.764Z,1.87
2018-02-25T12:18:54.956Z,2.00
2018-02-25T12:21:22.381Z,1.70
2018-02-25T12:23:49.797Z,2.10
2018-02-25T12:26:17.991Z,2.27
2018-02-25T12:28:45.443Z,2.33
2018-02-25T12:31:12.895Z,1.77
2018-02-25T12:33:40.339Z,1.90
2018-02-25T12:36:07.771Z,1.60
2018-02-25T12:38:35.214Z,1.60
2018-02-25T12:41:03.403Z,1.63
2018-02-25T12:43:30.867Z,1.60
2018-02-25T12:45:59.041Z,1.80
2018-02-25T12:48:26.477Z,1.40
2018-02-25T12:50:54.694Z,1.50
2018-02-25T12:53:22.113Z,1.97
2018-02-25T12:55:50.310Z,2.30
2018-02-25T12:58:17.808Z,1.87
2018-02-25T13:00:46.111Z,2.10
2018-02-25T13:03:13.523Z,2.03
2018-02-25T13:05:40.951Z,1.40
2018-02-25T13:08:08.387Z,2.30
2018-02-25T13:10:36.592Z,1.77
2018-02-25T13:13:04.021Z,2.20
2018-02-25T13:15:32.211Z,3.20
2018-02-25T13:17:59.631Z,1.83
2018-02-25T13:20:27.053Z,1.80
2018-02-25T13:22:54.499Z,1.80
2018-02-25T13:25:22.021Z,1.83
2018-02-25T13:27:50.199Z,1.70
2018-02-25T13:30:18.397Z,2.53
2018-02-25T13:32:45.824Z,2.23
2018-02-25T13:35:14.030Z,1.93
2018-02-25T13:37:41.462Z,2.10
2018-02-25T13:40:09.675Z,1.43
2018-02-25T13:42:37.095Z,1.60
2018-02-25T13:45:05.342Z,2.20
2018-02-25T13:47:32.782Z,1.77
2018-02-25T13:50:00.992Z,2.00
2018-02-25T13:52:28.414Z,2.33
2018-02-25T13:54:55.855Z,2.20
2018-02-25T13:57:23.275Z,1.97
2018-02-25T13:59:51.588Z,2.10
2018-02-25T14:02:19.051Z,1.93
2018-02-25T14:04:47.219Z,1.80
2018-02-25T14:07:14.644Z,2.10
2018-02-25T14:09:42.862Z,2.40
2018-02-25T14:12:10.293Z,2.40
2018-02-25T14:14:37.720Z,2.20
2018-02-25T14:17:05.921Z,1.83
2018-02-25T14:19:33.400Z,2.03
2018-02-25T14:22:00.805Z,2.20
2018-02-25T14:24:29.025Z,1.93
2018-02-25T14:26:57.186Z,1.93
2018-02-25T14:29:24.633Z,2.00
2018-02-25T14:31:52.820Z,2.13
2018-02-25T14:34:20.250Z,1.50
2018-02-25T14:36:47.662Z,1.83
2018-02-25T14:39:15.108Z,1.40
2018-02-25T14:41:42.537Z,1.40
2018-02-25T14:44:09.974Z,1.77
2018-02-25T14:46:37.404Z,1.87
2018-02-25T14:49:04.833Z,2.27
2018-02-25T14:51:32.255Z,1.83
2018-02-25T14:54:00.447Z,1.83
2018-02-25T14:56:27.907Z,1.57
2018-02-25T14:58:55.350Z,1.73
2018-02-25T15:01:23.540Z,1.90
2018-02-25T15:03:50.974Z,3.20
2018-02-25T15:06:19.172Z,2.23
2018-02-25T15:08:46.612Z,1.40
2018-02-25T15:11:14.817Z,1.20
2018-02-25T15:13:42.241Z,1.70
2018-02-25T15:16:10.592Z,1.93
2018-02-25T15:18:38.061Z,1.33
2018-02-25T15:21:05.463Z,1.57
2018-02-25T15:23:32.897Z,1.60
2018-02-25T15:26:00.357Z,1.70
2018-02-25T15:28:28.545Z,1.50
2018-02-25T15:30:55.964Z,2.40
2018-02-25T15:33:24.157Z,1.07
2018-02-25T15:35:52.428Z,1.43
2018-02-25T15:38:19.801Z,2.27
2018-02-25T15:40:48.002Z,2.77
2018-02-25T15:43:15.424Z,2.67
2018-02-25T15:45:42.868Z,1.33
2018-02-25T15:48:11.051Z,2.20
2018-02-25T15:50:39.255Z,2.60
2018-02-25T15:53:06.671Z,2.20
2018-02-25T15:55:34.867Z,1.97
2018-02-25T15:58:03.134Z,1.70
2018-02-25T16:00:30.559Z,1.90
2018-02-25T16:02:58.018Z,1.67
2018-02-25T16:05:25.444Z,2.80
2018-02-25T16:07:52.878Z,2.13
2018-02-25T16:10:20.292Z,1.70
2018-02-25T16:12:47.725Z,2.00
2018-02-25T16:15:15.163Z,1.70
2018-02-25T16:17:42.604Z,1.93
2018-02-25T16:20:10.029Z,1.50
2018-02-25T16:22:37.459Z,1.73
2018-02-25T16:25:04.926Z,2.07
2018-02-25T16:27:32.358Z,1.70
2018-02-25T16:29:59.770Z,1.40
2018-02-25T16:32:27.987Z,1.40
2018-02-25T16:34:55.411Z,1.50
2018-02-25T16:37:23.612Z,1.63
2018-02-25T16:39:51.037Z,1.70
2018-02-25T16:42:19.229Z,1.73
2018-02-25T16:44:46.666Z,2.00
2018-02-25T16:47:14.880Z,1.60
2018-02-25T16:49:42.295Z,1.50
2018-02-25T16:52:10.492Z,1.87
2018-02-25T16:54:37.973Z,2.30
2018-02-25T16:57:06.124Z,1.93
2018-02-25T16:59:33.562Z,2.63
2018-02-25T17:02:01.756Z,1.53
2018-02-25T17:04:29.172Z,2.40
2018-02-25T17:06:56.623Z,2.00
2018-02-25T17:09:24.049Z,1.60
2018-02-25T17:11:52.249Z,1.77
2018-02-25T17:14:19.675Z,2.23
2018-02-25T17:16:47.109Z,1.80
2018-02-25T17:19:14.546Z,2.43
2018-02-25T17:21:41.956Z,2.23
2018-02-25T17:24:09.396Z,2.17
2018-02-25T17:26:36.816Z,2.00
2018-02-25T17:29:05.046Z,1.97
2018-02-25T17:31:32.487Z,1.75
2018-02-25T17:33:59.932Z,2.10
2018-02-25T17:36:27.377Z,2.17
2018-02-25T17:38:54.848Z,1.80
2018-02-25T17:41:22.449Z,2.27
2018-02-25T17:43:49.889Z,2.03
2018-02-25T17:46:17.378Z,2.50
2018-02-25T17:48:44.856Z,1.83
2018-02-25T17:51:13.079Z,2.03
2018-02-25T17:53:40.561Z,2.23
2018-02-25T17:56:08.069Z,2.73
2018-02-25T17:58:35.614Z,2.00
2018-02-25T18:01:03.937Z,1.37
2018-02-25T18:03:32.295Z,2.07
2018-02-25T18:06:00.554Z,1.23
2018-02-25T18:08:28.816Z,1.73
2018-02-25T18:10:57.084Z,1.40
2018-02-25T18:13:24.550Z,1.50
2018-02-25T18:15:52.039Z,2.33
2018-02-25T18:18:19.621Z,2.47
2018-02-25T18:20:47.241Z,1.47
2018-02-25T18:23:15.596Z,1.50
2018-02-25T18:25:43.092Z,1.80
2018-02-25T18:28:10.641Z,2.20
2018-02-25T18:30:38.164Z,1.60
2018-02-25T18:33:05.696Z,1.65
2018-02-25T18:35:33.182Z,1.50
2018-02-25T18:38:00.867Z,2.07
2018-02-25T18:40:29.137Z,1.60
2018-02-25T18:42:56.578Z,1.75
2018-02-25T18:45:24.078Z,1.60
2018-02-25T18:47:53.144Z,2.53
2018-02-25T18:50:21.438Z,2.10
2018-02-25T18:52:49.689Z,2.08
2018-02-25T18:55:17.188Z,1.83
2018-02-25T18:57:44.623Z,1.77
2018-02-25T19:00:12.874Z,1.62
2018-02-25T19:02:40.382Z,3.35
2018-02-25T19:05:07.970Z,2.90
2018-02-25T19:07:35.401Z,1.87
2018-02-25T19:10:02.869Z,2.40
2018-02-25T19:12:30.295Z,1.98
2018-02-25T19:14:57.789Z,3.87
2018-02-25T19:17:25.278Z,1.50
2018-02-25T19:19:52.868Z,2.30
2018-02-25T19:22:22.167Z,1.53
2018-02-25T19:24:49.766Z,1.85
2018-02-25T19:27:17.511Z,2.42
2018-02-25T19:29:44.977Z,2.25
2018-02-25T19:32:12.604Z,1.67
2018-02-25T19:34:40.058Z,1.30
2018-02-25T19:37:13.256Z,1.48
2018-02-25T19:39:46.564Z,1.90
2018-02-25T19:42:14.795Z,1.83
2018-02-25T19:44:42.249Z,1.73
2018-02-25T19:47:09.716Z,1.90
2018-02-25T19:49:37.172Z,2.30
2018-02-25T19:52:04.648Z,1.70
2018-02-25T19:54:32.110Z,1.30
2018-02-25T19:57:00.343Z,1.45
2018-02-25T19:59:27.988Z,1.30
2018-02-25T20:01:55.597Z,1.35
2018-02-25T20:04:25.386Z,1.17
2018-02-25T20:06:52.890Z,1.30
2018-02-25T20:09:21.170Z,1.20
2018-02-25T20:11:48.698Z,1.10
2018-02-25T20:14:16.931Z,2.25
2018-02-25T20:16:44.394Z,1.12
2018-02-25T20:19:11.833Z,1.40
2018-02-25T20:21:39.268Z,1.25
2018-02-25T20:24:07.495Z,1.55
2018-02-25T20:26:34.931Z,0.90
2018-02-25T20:29:02.366Z,1.48
2018-02-25T20:31:30.569Z,1.25
2018-02-25T20:33:58.017Z,1.10
2018-02-25T20:36:25.443Z,1.70
2018-02-25T20:38:53.666Z,1.20
2018-02-25T20:41:21.117Z,1.33
2018-02-25T20:43:48.561Z,2.08
2018-02-25T20:46:16.010Z,1.77
2018-02-25T20:48:43.493Z,1.20
2018-02-25T20:51:10.910Z,1.27
2018-02-25T20:53:39.114Z,1.43
2018-02-25T20:56:06.552Z,1.65
2018-02-25T20:58:34.748Z,1.40
2018-02-25T21:01:02.188Z,1.40
2018-02-25T21:03:29.620Z,1.37
2018-02-25T21:05:57.878Z,1.05
2018-02-25T21:08:25.437Z,1.60
2018-02-25T21:10:52.912Z,2.05
2018-02-25T21:13:21.295Z,1.42
2018-02-25T21:15:49.741Z,2.05
2018-02-25T21:18:17.181Z,1.90
2018-02-25T21:20:44.626Z,1.60
2018-02-25T21:23:12.055Z,1.40
2018-02-25T21:25:40.278Z,1.60
2018-02-25T21:28:07.729Z,1.40
2018-02-25T21:30:35.178Z,1.50
2018-02-25T21:33:02.608Z,0.98
2018-02-25T21:35:30.826Z,1.40
2018-02-25T21:37:58.256Z,1.67
2018-02-25T21:40:25.711Z,1.10
2018-02-25T21:42:53.159Z,1.62
2018-02-25T21:45:21.364Z,1.33
2018-02-25T21:47:48.806Z,1.20
2018-02-25T21:50:16.239Z,1.50
2018-02-25T21:52:44.879Z,1.40
2018-02-25T21:55:12.355Z,1.50
2018-02-25T21:57:45.539Z,1.30
2018-02-25T22:00:13.856Z,1.80
2018-02-25T22:02:47.932Z,1.62
2018-02-25T22:05:15.515Z,1.48
2018-02-25T22:07:43.131Z,1.65
2018-02-25T22:10:10.643Z,1.70
2018-02-25T22:12:38.911Z,1.90
2018-02-25T22:15:07.179Z,1.95
2018-02-25T22:17:34.714Z,1.65
2018-02-25T22:20:02.941Z,1.70
2018-02-25T22:22:31.168Z,1.70
2018-02-25T22:24:58.596Z,1.73
2018-02-25T22:27:26.102Z,1.30
2018-02-25T22:29:53.583Z,1.40
2018-02-25T22:32:21.798Z,2.30
2018-02-25T22:34:49.367Z,1.58
2018-02-25T22:37:16.900Z,1.20
2018-02-25T22:39:45.183Z,1.65
2018-02-25T22:42:12.653Z,1.70
2018-02-25T22:44:40.100Z,1.70
2018-02-25T22:47:07.574Z,1.52
2018-02-25T22:49:35.007Z,2.00
2018-02-25T22:52:02.592Z,1.90
2018-02-25T22:54:30.029Z,2.60
2018-02-25T22:56:57.479Z,1.60
2018-02-25T22:59:24.979Z,2.00
2018-02-25T23:01:52.520Z,1.77
2018-02-25T23:04:19.991Z,1.80
2018-02-25T23:06:47.477Z,1.70
2018-02-25T23:09:14.913Z,2.00
2018-02-25T23:11:42.358Z,1.80
2018-02-25T23:14:09.811Z,1.75
2018-02-25T23:16:37.264Z,1.80
2018-02-25T23:19:04.707Z,2.08
2018-02-25T23:21:32.162Z,1.90
2018-02-25T23:23:59.605Z,2.08
2018-02-25T23:26:27.067Z,1.90
2018-02-25T23:28:54.502Z,1.80
2018-02-25T23:31:22.780Z,1.98
2018-02-25T23:33:50.990Z,2.17
2018-02-25T23:36:18.438Z,2.12
2018-02-25T23:38:45.886Z,2.33
2018-02-25T23:41:13.330Z,1.70
2018-02-25T23:43:41.550Z,1.77
2018-02-25T23:46:08.993Z,2.17
2018-02-25T23:48:36.433Z,1.90
2018-02-25T23:51:03.889Z,2.20
2018-02-25T23:53:31.340Z,2.55
2018-02-25T23:55:59.538Z,1.87
2018-02-25T23:58:26.991Z,2.45
